Time;durP1;ratioP1;P1;durP2;ratioP2;P2;SDS_P1;SDS_P2;PMS_P1;PMS_P2;Temp;Humidity;BMP_temperature;BMP_pressure;BME280_temperature;BME280_humidity;BME280_pressure;Samples;Min_cycle;Max_cycle;Signal;HPM_P1;HPM_P2
2022/05/13 00:00:09;;;;;;;10.70;2.70;;;;;;;11.76;61.00;101666.69;4988733;28;20078;-91
2022/05/13 00:02:34;;;;;;;8.52;2.90;;;;;;;11.67;61.29;101654.59;4992607;28;20689;-91
2022/05/13 00:05:01;;;;;;;13.90;2.72;;;;;;;11.64;61.36;101646.72;4994199;28;20054;-91
2022/05/13 00:07:26;;;;;;;10.02;2.60;;;;;;;11.61;61.65;101653.03;4996598;28;20030;-91
2022/05/13 00:09:57;;;;;;;8.95;2.53;;;;;;;11.51;62.10;101637.53;4984265;28;20038;-92
2022/05/13 00:12:31;;;;;;;10.75;3.33;;;;;;;11.49;62.04;101645.56;4995591;28;20073;-91
2022/05/13 00:14:58;;;;;;;9.00;3.05;;;;;;;11.45;62.52;101641.28;4990497;28;20034;-91
2022/05/13 00:17:23;;;;;;;8.18;2.88;;;;;;;11.38;62.90;101640.69;4992925;28;20069;-91
2022/05/13 00:19:49;;;;;;;10.30;3.05;;;;;;;11.38;62.90;101648.69;4994464;28;20663;-92
2022/05/13 00:22:15;;;;;;;9.15;3.03;;;;;;;11.32;63.07;101643.59;4996579;28;20488;-92
2022/05/13 00:24:41;;;;;;;11.80;3.10;;;;;;;11.20;63.49;101639.66;4996687;28;20376;-91
2022/05/13 00:27:07;;;;;;;11.65;3.20;;;;;;;11.18;63.39;101645.97;5002050;28;20485;-91
2022/05/13 00:29:33;;;;;;;8.23;3.10;;;;;;;11.12;63.87;101647.09;4996738;28;20025;-92
2022/05/13 00:31:59;;;;;;;9.13;3.17;;;;;;;11.06;64.18;101649.13;4994938;28;20042;-90
2022/05/13 00:34:24;;;;;;;9.05;2.90;;;;;;;11.01;64.33;101649.31;4992740;28;20058;-93
2022/05/13 00:36:50;;;;;;;10.38;2.70;;;;;;;10.98;64.47;101647.63;4994137;28;20022;-92
2022/05/13 00:39:15;;;;;;;7.97;2.75;;;;;;;10.92;64.92;101649.69;4974378;28;20527;-92
2022/05/13 00:41:41;;;;;;;7.82;2.75;;;;;;;10.87;64.83;101643.69;4992241;28;20053;-90
2022/05/13 00:44:07;;;;;;;6.50;2.47;;;;;;;10.85;65.10;101645.53;4988670;28;20093;-92
2022/05/13 00:46:32;;;;;;;8.73;2.92;;;;;;;10.80;64.91;101650.16;4994061;28;20021;-91
2022/05/13 00:49:01;;;;;;;7.32;2.50;;;;;;;10.76;64.80;101653.88;4986348;28;20062;-90
2022/05/13 00:51:31;;;;;;;7.35;2.30;;;;;;;10.75;64.66;101649.47;4989701;28;20045;-92
2022/05/13 00:53:58;;;;;;;8.45;2.60;;;;;;;10.68;64.32;101646.19;4992125;28;20030;-92
2022/05/13 00:56:23;;;;;;;7.90;2.35;;;;;;;10.61;64.21;101642.00;4993223;28;20381;-92
2022/05/13 00:58:54;;;;;;;7.60;2.58;;;;;;;10.56;64.36;101643.97;4991620;28;20033;-92
2022/05/13 01:01:20;;;;;;;6.82;2.60;;;;;;;10.55;63.91;101635.13;4993002;28;20038;-94
2022/05/13 01:03:48;;;;;;;7.20;2.25;;;;;;;10.55;63.92;101642.25;4992269;28;20089;-92
2022/05/13 01:06:20;;;;;;;7.50;2.50;;;;;;;10.51;63.77;101637.97;4992176;28;20827;-91
2022/05/13 01:08:47;;;;;;;5.40;2.38;;;;;;;10.46;63.67;101639.00;4991890;28;20038;-92
2022/05/13 01:11:17;;;;;;;8.77;2.58;;;;;;;10.51;63.02;101640.63;4991731;28;20023;-92
2022/05/13 01:13:51;;;;;;;8.25;2.58;;;;;;;10.50;62.84;101630.91;4974170;28;20034;-92
2022/05/13 01:16:16;;;;;;;5.97;2.13;;;;;;;10.51;62.99;101636.16;4987041;28;20127;-94
2022/05/13 01:18:43;;;;;;;8.27;2.15;;;;;;;10.46;63.00;101640.81;4991853;28;20081;-93
2022/05/13 01:21:13;;;;;;;7.07;2.10;;;;;;;10.47;62.32;101630.09;4987762;28;20031;-89
2022/05/13 01:23:42;;;;;;;5.15;2.03;;;;;;;10.48;62.58;101638.94;4984027;28;20427;-91
2022/05/13 01:26:11;;;;;;;4.75;1.90;;;;;;;10.48;62.24;101638.94;4996275;28;20038;-93
2022/05/13 01:28:40;;;;;;;7.10;1.90;;;;;;;10.44;62.56;101634.66;4992873;28;20479;-92
2022/05/13 01:31:09;;;;;;;7.55;2.00;;;;;;;10.44;62.48;101634.66;4990863;28;20042;-92
2022/05/13 01:33:35;;;;;;;5.65;1.77;;;;;;;10.35;62.57;101629.69;4987838;28;20081;-93
2022/05/13 01:36:03;;;;;;;10.77;2.13;;;;;;;10.39;62.55;101637.50;4991159;28;20034;-93
2022/05/13 01:38:32;;;;;;;5.50;1.83;;;;;;;10.33;62.34;101628.91;4993776;28;20077;-90
2022/05/13 01:40:58;;;;;;;6.03;1.88;;;;;;;10.36;62.47;101645.59;4991859;28;20096;-93
2022/05/13 01:43:24;;;;;;;8.18;1.77;;;;;;;10.38;62.54;101649.06;4987509;28;20047;-91
2022/05/13 01:45:49;;;;;;;6.10;1.77;;;;;;;10.33;62.75;101648.38;4991587;28;20034;-92
2022/05/13 01:48:15;;;;;;;8.13;2.03;;;;;;;10.33;62.77;101647.53;4994630;28;20057;-91
2022/05/13 01:50:41;;;;;;;5.18;1.83;;;;;;;10.31;63.14;101644.03;4994661;28;20396;-91
2022/05/13 01:53:07;;;;;;;7.03;1.80;;;;;;;10.27;63.15;101648.59;4994115;28;20039;-91
2022/05/13 01:55:33;;;;;;;9.02;1.98;;;;;;;10.22;63.23;101650.53;4992886;28;20094;-91
2022/05/13 01:57:59;;;;;;;8.27;2.05;;;;;;;10.20;63.51;101650.59;4993463;28;20085;-93
2022/05/13 02:00:24;;;;;;;5.95;2.35;;;;;;;10.18;63.64;101644.44;4993876;28;20054;-93
2022/05/13 02:05:34;;;;;;;8.80;2.20;;;;;;;10.30;64.04;101648.50;4993638;28;20399;-90
2022/05/13 02:07:59;;;;;;;6.35;2.05;;;;;;;10.38;64.12;101651.72;4980745;28;20391;-90
2022/05/13 02:10:24;;;;;;;6.05;2.10;;;;;;;10.37;64.23;101642.03;4999753;28;20106;-90
2022/05/13 02:12:50;;;;;;;8.65;2.30;;;;;;;10.39;64.47;101645.47;4994858;28;20123;-91
2022/05/13 02:15:15;;;;;;;6.90;2.10;;;;;;;10.41;64.13;101646.31;4994352;28;20030;-90
2022/05/13 02:17:41;;;;;;;6.38;2.17;;;;;;;10.38;64.29;101643.75;4986208;28;20038;-91
2022/05/13 02:20:07;;;;;;;6.82;2.08;;;;;;;10.32;64.00;101649.28;4993757;28;20034;-92
2022/05/13 02:22:33;;;;;;;5.15;1.95;;;;;;;10.30;64.17;101648.50;4989493;28;20101;-93
2022/05/13 02:24:58;;;;;;;5.15;1.98;;;;;;;10.28;64.36;101645.00;4998701;28;20508;-92
2022/05/13 02:27:24;;;;;;;4.18;1.92;;;;;;;10.27;64.41;101647.72;4986053;28;20324;-92
2022/05/13 02:29:49;;;;;;;8.45;2.38;;;;;;;10.26;64.66;101635.34;5000484;28;20377;-93
2022/05/13 02:32:15;;;;;;;7.90;2.00;;;;;;;10.24;64.62;101635.34;4993999;28;20015;-92
2022/05/13 02:34:40;;;;;;;9.82;3.40;;;;;;;10.25;64.80;101642.47;4996566;28;20022;-91
2022/05/13 02:37:05;;;;;;;8.30;2.22;;;;;;;10.18;65.29;101640.91;4998948;28;20034;-93
2022/05/13 02:39:31;;;;;;;6.22;2.42;;;;;;;10.09;66.02;101638.59;5000538;28;20058;-91
2022/05/13 02:41:56;;;;;;;12.02;2.28;;;;;;;10.08;66.51;101642.19;4999476;28;20081;-93
2022/05/13 02:44:22;;;;;;;9.68;2.80;;;;;;;10.00;66.56;101634.47;4992078;28;20480;-93
2022/05/13 02:46:48;;;;;;;9.93;2.63;;;;;;;9.94;67.33;101638.22;4999157;28;20043;-91
2022/05/13 02:49:14;;;;;;;9.60;2.53;;;;;;;9.94;67.44;101632.88;5000928;28;20037;-92
2022/05/13 02:51:40;;;;;;;7.88;2.50;;;;;;;9.96;67.74;101636.38;4998009;28;20032;-93
2022/05/13 02:54:06;;;;;;;9.75;2.88;;;;;;;9.94;68.04;101632.03;4998919;28;20125;-92
2022/05/13 02:56:31;;;;;;;10.75;3.22;;;;;;;9.92;68.30;101625.91;5000797;28;20487;-91
2022/05/13 02:58:56;;;;;;;10.10;2.95;;;;;;;9.87;68.65;101639.38;4999132;28;20037;-91
2022/05/13 03:01:22;;;;;;;6.82;2.67;;;;;;;9.93;68.39;101628.50;4996746;28;20068;-94
2022/05/13 03:03:49;;;;;;;8.90;2.65;;;;;;;9.92;68.77;101637.41;5003141;28;20101;-91
2022/05/13 03:06:14;;;;;;;8.05;2.50;;;;;;;9.94;68.47;101635.56;4998562;28;20042;-91
2022/05/13 03:08:41;;;;;;;7.20;2.47;;;;;;;9.98;68.62;101631.00;4998673;28;20030;-92
2022/05/13 03:11:07;;;;;;;13.32;2.60;;;;;;;9.98;68.57;101631.84;4997117;28;20038;-94
2022/05/13 03:13:33;;;;;;;7.00;2.80;;;;;;;10.00;68.79;101631.81;4998668;28;20034;-92
2022/05/13 03:16:04;;;;;;;9.38;2.70;;;;;;;10.00;68.75;101641.59;4990998;28;20065;-92
2022/05/13 03:18:29;;;;;;;12.65;2.80;;;;;;;10.03;68.79;101631.69;4997573;28;20483;-92
2022/05/13 03:20:55;;;;;;;10.82;2.88;;;;;;;10.08;68.62;101631.56;4996586;28;20033;-93
2022/05/13 03:23:20;;;;;;;8.65;2.67;;;;;;;10.10;68.77;101627.03;4981858;28;20029;-92
2022/05/13 03:25:45;;;;;;;7.88;3.03;;;;;;;10.13;68.70;101630.44;4998413;28;20065;-91
2022/05/13 03:28:10;;;;;;;9.13;3.55;;;;;;;10.20;69.01;101641.75;4997514;28;20096;-93
2022/05/13 03:30:36;;;;;;;9.20;3.15;;;;;;;10.25;68.82;101634.50;4998310;28;20042;-90
2022/05/13 03:33:01;;;;;;;8.43;2.72;;;;;;;10.28;68.84;101625.50;4996441;28;20034;-93
2022/05/13 03:35:27;;;;;;;11.07;2.78;;;;;;;10.22;68.96;101619.47;4994218;28;20015;-91
2022/05/13 03:37:52;;;;;;;14.88;3.03;;;;;;;10.22;69.19;101629.25;4992137;28;20109;-90
2022/05/13 03:40:18;;;;;;;7.00;2.97;;;;;;;10.17;69.50;101617.91;5000028;28;20010;-91
2022/05/13 03:42:44;;;;;;;8.07;2.97;;;;;;;10.17;69.48;101624.09;4992701;28;20491;-91
2022/05/13 03:45:11;;;;;;;10.73;3.53;;;;;;;10.10;70.09;101619.03;4994150;28;20538;-92
2022/05/13 03:47:36;;;;;;;8.93;3.15;;;;;;;10.01;70.46;101614.06;4997686;28;20109;-89
2022/05/13 03:50:03;;;;;;;8.90;3.45;;;;;;;9.94;71.15;101630.22;4999190;28;20065;-91
2022/05/13 03:52:29;;;;;;;13.63;3.65;;;;;;;9.88;71.44;101629.59;5000881;28;20653;-91
2022/05/13 03:54:54;;;;;;;10.48;2.72;;;;;;;9.84;71.46;101631.50;5003714;28;20022;-90
2022/05/13 03:57:19;;;;;;;12.57;3.45;;;;;;;9.85;71.38;101619.06;5001785;28;20032;-92
2022/05/13 03:59:45;;;;;;;10.07;3.60;;;;;;;9.85;71.85;101625.25;4998436;28;20079;-92
2022/05/13 04:02:10;;;;;;;9.90;3.30;;;;;;;9.81;72.04;101634.25;4993254;28;20041;-91
2022/05/13 04:08:56;;;;;;;13.10;3.28;;;;;;;9.82;71.86;101620.03;4995915;28;20107;-90
2022/05/13 04:10:06;;;;;;;12.65;3.72;;;;;;;9.73;72.48;101620.34;4995993;28;20482;-88
2022/05/13 04:18:05;;;;;;;;;;;;;;;9.75;70.35;101631.81;4946567;29;20046;-90
2022/05/13 04:20:32;;;;;;;13.03;3.57;;;;;;;9.67;72.58;101629.44;4951559;28;21872;-91
2022/05/13 04:22:57;;;;;;;6.70;3.35;;;;;;;9.70;72.80;101625.81;4968888;28;20763;-92
2022/05/13 04:25:23;;;;;;;14.27;4.75;;;;;;;9.65;73.20;101631.25;4954776;29;20078;-92
2022/05/13 04:27:48;;;;;;;11.32;4.20;;;;;;;9.64;73.06;101633.97;4961506;28;20428;-91
2022/05/13 04:30:13;;;;;;;11.07;4.30;;;;;;;9.63;73.40;101619.81;4945014;28;20536;-92
2022/05/13 04:32:39;;;;;;;13.23;4.00;;;;;;;9.63;73.74;101634.91;4958542;28;20019;-92
2022/05/13 04:35:05;;;;;;;10.60;3.47;;;;;;;9.65;73.41;101633.91;4954620;28;20038;-91
2022/05/13 04:37:31;;;;;;;8.13;3.53;;;;;;;9.69;73.50;101632.03;4944617;28;20036;-91
2022/05/13 04:39:56;;;;;;;12.63;4.40;;;;;;;9.74;73.36;101635.41;4950286;29;20051;-90
2022/05/13 04:45:06;;;;;;;;;;;;;;;9.83;71.20;101643.06;4965824;28;20403;-90
2022/05/13 04:50:15;;;;;;;10.90;3.80;;;;;;;9.91;72.69;101654.28;4945716;28;20086;-90
2022/05/13 04:52:40;;;;;;;12.93;3.70;;;;;;;9.89;72.99;101645.50;4961450;28;20035;-93
2022/05/13 04:55:06;;;;;;;10.32;3.47;;;;;;;9.88;72.97;101649.06;4987955;28;20050;-93
2022/05/13 04:57:32;;;;;;;14.98;3.90;;;;;;;9.91;72.64;101667.59;4996397;28;20010;-91
2022/05/13 04:59:57;;;;;;;14.38;4.57;;;;;;;9.95;72.76;101665.69;4994176;28;20026;-91
2022/05/13 05:02:23;;;;;;;11.80;4.22;;;;;;;10.01;72.98;101675.25;4994525;28;20205;-92
2022/05/13 05:04:48;;;;;;;11.48;4.13;;;;;;;10.10;72.39;101666.94;4999714;28;20046;-91
2022/05/13 05:07:13;;;;;;;8.18;3.60;;;;;;;10.21;72.17;101670.09;4994501;28;20472;-91
2022/05/13 05:09:39;;;;;;;11.80;4.15;;;;;;;10.31;71.99;101671.50;4966936;28;20069;-92
2022/05/13 05:12:05;;;;;;;12.40;4.07;;;;;;;10.37;71.73;101679.28;4992381;28;20062;-92
2022/05/13 05:14:30;;;;;;;12.02;3.70;;;;;;;10.43;71.20;101671.06;4980516;28;20060;-92
2022/05/13 05:16:55;;;;;;;12.43;3.72;;;;;;;10.50;71.63;101679.69;4994078;28;20034;-91
2022/05/13 05:19:21;;;;;;;15.43;4.40;;;;;;;10.53;71.11;101676.91;4994556;28;20030;-90
2022/05/13 05:21:46;;;;;;;10.32;3.35;;;;;;;10.54;71.53;101678.66;4992851;28;20030;-89
2022/05/13 05:24:11;;;;;;;13.55;4.10;;;;;;;10.54;70.92;101673.34;4995659;28;20034;-92
2022/05/13 05:26:37;;;;;;;14.18;3.75;;;;;;;10.60;70.93;101681.06;4993800;28;20112;-90
2022/05/13 05:29:02;;;;;;;11.60;3.40;;;;;;;10.55;71.53;101693.69;4994546;28;20447;-91
2022/05/13 05:31:27;;;;;;;10.65;3.47;;;;;;;10.63;71.42;101688.09;4997168;28;20029;-91
2022/05/13 05:33:53;;;;;;;15.23;3.60;;;;;;;10.76;71.04;101694.69;5007486;28;20073;-90
2022/05/13 05:36:18;;;;;;;9.25;3.83;;;;;;;10.94;70.37;101695.75;4996059;28;20038;-91
2022/05/13 05:38:44;;;;;;;10.95;4.00;;;;;;;11.04;70.05;101704.28;5000701;28;20030;-91
2022/05/13 05:41:09;;;;;;;11.35;3.30;;;;;;;11.09;69.55;101702.31;4999672;28;20034;-91
2022/05/13 05:43:35;;;;;;;8.98;3.38;;;;;;;11.15;69.38;101704.72;4993989;28;20476;-91
2022/05/13 05:46:01;;;;;;;10.60;3.95;;;;;;;11.21;69.34;101707.16;4996241;28;20034;-93
2022/05/13 05:48:28;;;;;;;11.02;3.90;;;;;;;11.23;68.96;101703.47;4995372;28;20026;-94
2022/05/13 05:50:55;;;;;;;12.90;3.70;;;;;;;11.37;69.46;101718.94;4990295;28;20400;-91
2022/05/13 05:58:54;;;;;;;15.45;3.75;;;;;;;11.80;67.85;101734.97;4986702;28;20057;-89
2022/05/13 06:01:19;;;;;;;15.30;3.78;;;;;;;11.92;67.50;101732.69;4987592;28;20460;-90
2022/05/13 06:03:44;;;;;;;14.00;4.18;;;;;;;12.02;66.50;101743.81;4991031;28;20058;-91
2022/05/13 06:06:12;;;;;;;12.45;3.72;;;;;;;12.01;66.75;101741.22;4992503;28;20026;-90
2022/05/13 06:08:37;;;;;;;13.45;4.03;;;;;;;12.03;66.98;101742.00;4990371;28;20045;-92
2022/05/13 06:11:03;;;;;;;12.95;4.20;;;;;;;12.09;66.53;101739.09;4994531;28;20038;-91
2022/05/13 06:13:28;;;;;;;10.75;3.97;;;;;;;12.21;66.58;101747.44;4991914;28;20044;-91
2022/05/13 06:15:53;;;;;;;10.93;4.40;;;;;;;12.33;66.12;101748.72;4997388;28;20030;-91
2022/05/13 06:18:18;;;;;;;12.52;4.22;;;;;;;12.48;65.74;101747.16;4992527;28;20033;-91
2022/05/13 06:20:44;;;;;;;13.82;4.30;;;;;;;12.64;65.70;101752.69;4988994;28;20160;-92
2022/05/13 06:23:10;;;;;;;12.95;4.50;;;;;;;12.83;65.11;101753.59;4991303;28;20034;-89
2022/05/13 06:25:36;;;;;;;16.17;4.20;;;;;;;12.91;64.64;101754.09;4987053;28;20565;-92
2022/05/13 06:28:02;;;;;;;13.85;4.50;;;;;;;13.03;64.60;101754.47;4983552;28;20020;-89
2022/05/13 06:30:30;;;;;;;13.43;4.30;;;;;;;13.16;64.30;101750.28;4995203;28;20019;-90
2022/05/13 06:32:57;;;;;;;10.93;4.10;;;;;;;13.40;63.76;101750.94;4975635;28;20057;-90
2022/05/13 06:35:24;;;;;;;13.50;4.82;;;;;;;13.54;63.19;101750.28;4998945;28;20651;-90
2022/05/13 06:37:51;;;;;;;13.05;4.32;;;;;;;13.75;62.34;101743.00;4990686;28;20027;-90
2022/05/13 06:40:16;;;;;;;14.00;4.78;;;;;;;13.79;62.25;101753.47;4983703;28;20033;-90
2022/05/13 06:42:42;;;;;;;13.02;4.22;;;;;;;13.85;62.41;101761.22;4984521;28;20042;-89
2022/05/13 06:45:08;;;;;;;14.75;4.47;;;;;;;13.95;62.19;101762.47;4989129;28;20794;-88
2022/05/13 06:47:33;;;;;;;12.75;4.68;;;;;;;14.06;61.95;101764.63;4992208;28;20531;-91
2022/05/13 06:50:05;;;;;;;13.52;5.20;;;;;;;14.11;61.65;101753.66;4992652;28;20027;-90
2022/05/13 06:52:30;;;;;;;16.33;5.63;;;;;;;14.16;61.34;101767.69;4990658;28;20033;-91
2022/05/13 06:54:56;;;;;;;9.82;5.07;;;;;;;14.21;61.46;101762.94;4969921;28;20034;-90
2022/05/13 06:57:21;;;;;;;13.63;5.03;;;;;;;14.33;61.39;101772.16;5002177;28;20382;-90
2022/05/13 06:59:46;;;;;;;12.60;5.28;;;;;;;14.41;61.12;101786.03;4999519;28;20033;-89
2022/05/13 07:02:11;;;;;;;10.75;4.57;;;;;;;14.44;60.61;101777.84;4990207;28;20062;-88
2022/05/13 07:04:37;;;;;;;14.23;4.55;;;;;;;14.37;60.35;101774.59;4988933;28;20075;-90
2022/05/13 07:07:02;;;;;;;10.68;4.88;;;;;;;14.35;60.57;101771.16;4988577;28;20037;-90
2022/05/13 07:09:28;;;;;;;12.85;5.05;;;;;;;14.38;60.89;101770.09;4992177;28;20049;-90
2022/05/13 07:11:54;;;;;;;11.07;4.78;;;;;;;14.37;60.49;101773.75;4987474;28;20026;-89
2022/05/13 07:14:20;;;;;;;9.80;4.63;;;;;;;14.51;60.50;101778.44;4994106;28;20023;-90
2022/05/13 07:16:45;;;;;;;12.30;4.75;;;;;;;14.61;60.23;101777.84;4993580;28;20038;-88
2022/05/13 07:19:10;;;;;;;12.00;4.88;;;;;;;14.75;59.55;101774.44;4994327;28;20038;-89
2022/05/13 07:21:36;;;;;;;12.65;4.70;;;;;;;15.09;58.93;101775.28;4992615;28;20030;-91
2022/05/13 07:24:02;;;;;;;15.40;5.05;;;;;;;15.29;58.48;101780.41;4997408;28;20042;-90
2022/05/13 07:26:28;;;;;;;11.57;5.00;;;;;;;15.43;58.22;101782.34;4978496;28;20065;-91
2022/05/13 07:28:53;;;;;;;13.70;5.85;;;;;;;15.60;57.51;101781.38;4992381;28;20439;-90
2022/05/13 07:31:18;;;;;;;15.75;5.68;;;;;;;15.51;57.57;101785.44;4985917;28;20554;-90
2022/05/13 07:33:44;;;;;;;12.88;5.57;;;;;;;15.60;57.49;101784.06;4991736;28;20094;-91
2022/05/13 07:36:09;;;;;;;12.55;5.57;;;;;;;15.80;56.13;101780.25;4991635;28;20042;-90
2022/05/13 07:38:34;;;;;;;11.27;5.68;;;;;;;15.84;56.42;101781.78;4973895;28;20038;-91
2022/05/13 07:41:19;;;;;;;15.13;6.82;;;;;;;15.75;56.43;101780.50;4991566;28;20045;-90
2022/05/13 07:43:45;;;;;;;12.60;6.82;;;;;;;15.75;56.68;101775.16;4997000;28;20033;-89
2022/05/13 07:46:12;;;;;;;13.25;6.70;;;;;;;15.93;55.81;101778.59;4995559;28;20042;-92
2022/05/13 07:48:39;;;;;;;10.82;6.28;;;;;;;16.03;54.62;101781.59;4995930;28;20096;-91
2022/05/13 07:51:04;;;;;;;11.57;6.88;;;;;;;16.09;55.36;101781.22;4999077;28;20022;-90
2022/05/13 07:53:30;;;;;;;10.90;6.40;;;;;;;16.67;53.54;101794.69;4998746;28;20039;-92
2022/05/13 07:55:55;;;;;;;12.07;6.50;;;;;;;17.31;52.02;101799.75;4998186;28;20397;-90
2022/05/13 07:58:21;;;;;;;11.15;7.05;;;;;;;17.80;50.14;101793.88;4996591;28;20101;-90
2022/05/13 08:00:46;;;;;;;14.10;6.95;;;;;;;17.99;49.41;101804.31;4992491;28;20484;-89
2022/05/13 08:03:14;;;;;;;13.63;6.75;;;;;;;17.53;49.74;101808.16;4992383;28;20484;-89
2022/05/13 08:05:45;;;;;;;13.13;6.63;;;;;;;17.23;50.79;101799.38;4996051;28;20026;-92
2022/05/13 08:08:35;;;;;;;14.73;6.43;;;;;;;17.82;50.23;101803.59;5000011;28;20038;-90
2022/05/13 08:11:04;;;;;;;14.55;6.88;;;;;;;17.90;49.35;101812.03;4990872;28;20039;-91
2022/05/13 08:13:31;;;;;;;15.60;6.47;;;;;;;17.91;49.44;101802.13;4999342;28;20026;-91
2022/05/13 08:15:57;;;;;;;13.18;6.65;;;;;;;18.12;48.95;101798.00;4980207;28;20039;-93
2022/05/13 08:18:22;;;;;;;14.38;7.68;;;;;;;18.48;48.09;101809.94;4996574;28;20030;-93
2022/05/13 08:20:49;;;;;;;12.10;7.93;;;;;;;18.90;47.65;101816.91;4995186;28;20023;-90
2022/05/13 08:23:14;;;;;;;13.60;8.18;;;;;;;19.32;45.53;101814.81;4997716;28;20114;-90
2022/05/13 08:25:40;;;;;;;14.27;7.55;;;;;;;19.72;45.44;101811.91;4997139;28;20112;-91
2022/05/13 08:28:07;;;;;;;12.07;7.55;;;;;;;19.69;45.22;101806.75;4974949;28;20126;-88
2022/05/13 08:30:33;;;;;;;16.63;8.50;;;;;;;20.00;43.44;101812.56;4990074;28;20454;-89
2022/05/13 08:33:01;;;;;;;13.63;8.75;;;;;;;20.22;42.66;101817.19;4992457;28;20038;-89
2022/05/13 08:35:27;;;;;;;10.55;7.22;;;;;;;19.59;44.22;101813.75;4992270;28;20034;-89
2022/05/13 08:37:54;;;;;;;12.18;6.88;;;;;;;19.42;44.34;101823.09;4992423;28;20117;-88
2022/05/13 08:40:38;;;;;;;11.70;6.68;;;;;;;19.83;44.14;101825.47;4989035;28;20144;-88
2022/05/13 08:43:09;;;;;;;11.60;7.20;;;;;;;19.85;43.56;101819.94;4990939;28;20439;-93
2022/05/13 08:45:36;;;;;;;9.23;5.88;;;;;;;20.00;42.49;101818.81;4992370;28;20044;-92
2022/05/13 08:48:08;;;;;;;10.18;6.60;;;;;;;20.83;40.91;101817.88;4976113;28;20049;-93
2022/05/13 08:50:50;;;;;;;11.13;5.90;;;;;;;21.43;39.85;101815.81;4991079;28;20058;-91
2022/05/13 08:53:38;;;;;;;11.93;5.50;;;;;;;21.01;41.00;101818.25;4994973;28;20045;-92
2022/05/13 08:56:10;;;;;;;11.60;6.60;;;;;;;20.99;40.00;101820.25;4988277;28;20058;-92
2022/05/13 08:58:46;;;;;;;11.30;7.03;;;;;;;21.67;38.64;101824.66;4994208;28;20026;-92
2022/05/13 09:01:20;;;;;;;12.90;7.80;;;;;;;21.09;38.83;101819.38;4994775;28;20656;-91
2022/05/13 09:03:54;;;;;;;;;;;;;;;21.44;40.85;101820.25;4999381;28;20076;-94
2022/05/13 09:06:30;;;;;;;16.02;8.50;;;;;;;22.65;37.10;101813.66;4994187;28;19921;-92
2022/05/13 09:08:57;;;;;;;10.30;8.57;;;;;;;22.22;36.46;101822.78;4993981;28;20050;-91
2022/05/13 09:11:34;;;;;;;11.85;7.53;;;;;;;22.94;36.27;101815.75;4991215;28;20372;-93
2022/05/13 09:14:30;;;;;;;10.80;6.70;;;;;;;24.31;34.21;101814.09;4993725;28;20034;-94
2022/05/13 09:17:11;;;;;;;13.75;7.53;;;;;;;24.16;33.50;101814.66;4993045;28;20500;-91
2022/05/13 09:19:57;;;;;;;14.23;9.50;;;;;;;23.80;34.63;101815.22;4992999;28;20042;-93
2022/05/13 09:22:23;;;;;;;7.72;5.95;;;;;;;24.40;32.69;101812.41;4992994;28;20117;-94
2022/05/13 09:24:48;;;;;;;6.72;6.00;;;;;;;24.78;31.62;101822.34;4995564;28;20038;-95
2022/05/13 09:27:14;;;;;;;7.22;5.10;;;;;;;24.64;31.11;101831.00;4999047;28;20045;-93
2022/05/13 09:29:43;;;;;;;13.20;5.60;;;;;;;24.14;31.50;101824.84;4995272;28;20030;-93
2022/05/13 09:32:17;;;;;;;8.18;4.63;;;;;;;24.17;32.05;101814.53;4997390;28;20058;-94
2022/05/13 09:35:07;;;;;;;8.13;4.78;;;;;;;24.33;31.42;101820.25;4995409;28;20090;-96
2022/05/13 09:37:41;;;;;;;7.90;5.75;;;;;;;23.27;33.05;101823.59;4995259;28;20046;-94
2022/05/13 09:40:07;;;;;;;8.60;5.78;;;;;;;22.67;33.65;101829.84;4999525;28;20105;-94
2022/05/13 09:42:41;;;;;;;9.07;6.25;;;;;;;21.47;35.08;101845.25;4999929;28;20127;-94
2022/05/13 09:45:16;;;;;;;8.50;5.75;;;;;;;20.55;37.29;101822.72;4998408;28;20034;-94
2022/05/13 09:47:41;;;;;;;10.60;5.25;;;;;;;19.64;38.76;101827.81;4996333;28;20034;-95
2022/05/13 09:50:27;;;;;;;8.98;5.63;;;;;;;19.42;40.01;101845.53;4988938;28;20053;-93
2022/05/13 09:52:53;;;;;;;9.55;5.90;;;;;;;20.18;38.96;101835.47;4994784;28;20061;-92
2022/05/13 09:55:36;;;;;;;8.93;5.95;;;;;;;21.35;36.75;101844.38;4998539;28;20041;-95
2022/05/13 09:58:05;;;;;;;10.82;5.78;;;;;;;22.58;34.97;101828.78;5002733;28;20034;-95
2022/05/13 10:00:35;;;;;;;9.65;5.85;;;;;;;22.17;34.36;101840.44;4996741;28;20026;-91
2022/05/13 10:03:24;;;;;;;16.63;5.55;;;;;;;20.94;37.30;101844.09;4995415;28;20039;-92
2022/05/13 10:06:04;;;;;;;17.05;6.22;;;;;;;20.05;38.92;101848.19;4992549;28;20034;-93
2022/05/13 10:08:30;;;;;;;28.38;6.57;;;;;;;21.01;37.43;101848.91;4994455;28;20141;-92
2022/05/13 10:13:59;;;;;;;32.95;6.75;;;;;;;21.57;35.03;101838.09;4993891;28;20106;-92
2022/05/13 10:16:34;;;;;;;19.08;5.70;;;;;;;20.73;37.13;101842.06;4993783;28;20148;-93
2022/05/13 10:19:06;;;;;;;8.85;4.82;;;;;;;19.88;38.43;101862.97;4993849;28;20041;-91
2022/05/13 10:21:40;;;;;;;15.10;7.55;;;;;;;19.10;40.19;101857.78;4992949;28;20445;-91
2022/05/13 10:24:37;;;;;;;29.38;9.73;;;;;;;18.71;41.09;101858.75;4995328;28;20030;-92
2022/05/13 10:27:04;;;;;;;38.53;9.13;;;;;;;18.36;42.39;101846.66;4961433;28;20118;-90
2022/05/13 10:29:39;;;;;;;16.40;5.90;;;;;;;18.62;41.54;101847.59;4992844;28;20085;-90
2022/05/13 10:32:24;;;;;;;33.03;6.50;;;;;;;20.36;38.72;101836.78;4994816;28;20038;-90
2022/05/13 10:34:54;;;;;;;20.10;6.07;;;;;;;21.74;35.37;101844.84;4998420;28;20042;-91
2022/05/13 10:37:23;;;;;;;8.00;5.28;;;;;;;21.15;35.74;101855.91;4997610;28;20371;-91
2022/05/13 10:40:01;;;;;;;12.65;6.28;;;;;;;20.74;37.10;101853.78;4988234;28;20361;-91
2022/05/13 10:42:43;;;;;;;9.70;4.57;;;;;;;22.60;34.16;101840.34;4975359;28;20480;-95
2022/05/13 10:45:15;;;;;;;6.85;5.05;;;;;;;23.08;32.13;101846.13;4993574;28;20046;-93
2022/05/13 10:47:46;;;;;;;8.23;4.93;;;;;;;22.05;34.12;101842.28;4995156;28;20038;-92
2022/05/13 10:50:16;;;;;;;11.43;6.47;;;;;;;21.39;34.86;101845.00;4989705;28;20431;-93
2022/05/13 10:52:53;;;;;;;10.23;6.47;;;;;;;21.09;36.25;101854.56;4988174;28;20221;-96
2022/05/13 10:55:35;;;;;;;9.43;6.97;;;;;;;21.06;35.80;101852.09;4997165;28;20041;-96
2022/05/13 10:58:13;;;;;;;11.70;7.35;;;;;;;22.57;34.30;101836.06;4992285;28;20612;-93
2022/05/13 11:01:07;;;;;;;11.75;6.20;;;;;;;24.79;31.95;101845.03;4991024;28;20039;-95
2022/05/13 11:04:07;;;;;;;10.18;5.85;;;;;;;26.81;28.89;101836.63;4988023;28;20471;-90
2022/05/13 11:07:01;;;;;;;10.20;6.30;;;;;;;26.03;28.85;101835.59;4915658;29;20040;-92
2022/05/13 11:10:16;;;;;;;10.60;7.82;;;;;;;24.63;30.39;101837.44;4916561;29;20148;-88
2022/05/13 11:12:57;;;;;;;11.88;9.23;;;;;;;23.55;30.49;101832.88;4883631;29;20052;-96
2022/05/13 11:15:29;;;;;;;9.18;7.30;;;;;;;22.32;32.53;101831.00;4907860;29;20047;-92
2022/05/13 11:18:13;;;;;;;10.07;7.03;;;;;;;21.68;34.27;101853.47;5042278;22;20050;-96
2022/05/13 11:20:52;;;;;;;8.38;6.32;;;;;;;21.28;34.77;101842.28;4992437;28;20085;-95
2022/05/13 11:23:30;;;;;;;10.75;6.47;;;;;;;20.70;35.83;101855.88;5002447;28;20033;-96
2022/05/13 11:26:28;;;;;;;8.70;6.32;;;;;;;20.20;36.70;101814.59;5001736;28;20038;-96
2022/05/13 11:29:29;;;;;;;13.48;5.55;;;;;;;20.33;37.54;101846.97;4993440;28;20058;-96
2022/05/13 11:32:40;;;;;;;12.27;6.40;;;;;;;21.07;36.46;101847.56;5007840;28;20026;-89
2022/05/13 11:35:26;;;;;;;11.50;5.53;;;;;;;23.27;33.31;101849.91;4950800;29;20039;-92
2022/05/13 11:37:57;;;;;;;7.53;5.45;;;;;;;22.82;32.68;101856.53;4953289;29;20091;-96
2022/05/13 11:40:36;;;;;;;8.27;5.47;;;;;;;21.88;33.56;101860.81;4955951;29;20043;-96
2022/05/13 11:43:29;;;;;;;11.52;6.68;;;;;;;21.22;34.58;101857.16;4961630;28;20031;-91
2022/05/13 11:46:13;;;;;;;52.92;12.82;;;;;;;20.73;35.99;101842.06;4930378;29;20048;-94
2022/05/13 11:48:53;;;;;;;10.50;6.63;;;;;;;21.05;36.09;101850.38;4959845;29;20035;-96
2022/05/13 11:51:28;;;;;;;14.00;7.57;;;;;;;21.36;34.81;101840.72;4961291;29;20043;-96
2022/05/13 11:53:59;;;;;;;10.05;7.30;;;;;;;21.18;35.29;101846.69;4956888;28;20120;-93
2022/05/13 11:56:25;;;;;;;8.43;6.03;;;;;;;20.97;35.50;101838.44;4956223;28;20053;-91